createdAt,value
2019-01-31T00:00:25.072Z,30.93
2019-01-31T00:03:03.172Z,39.87
2019-01-31T00:05:51.810Z,32.43
2019-01-31T00:08:45.424Z,27.83
2019-01-31T00:11:23.498Z,28.33
2019-01-31T00:14:03.754Z,37.30
2019-01-31T00:16:48.194Z,28.07
2019-01-31T00:19:23.342Z,25.80
2019-01-31T00:23:38.920Z,25.70
2019-01-31T00:26:25.138Z,30.80
2019-01-31T00:29:04.273Z,32.60
2019-01-31T00:31:50.943Z,36.13
2019-01-31T00:36:48.234Z,29.20
2019-01-31T00:39:38.739Z,28.67
2019-01-31T00:42:22.012Z,29.60
2019-01-31T00:47:10.593Z,29.63
2019-01-31T00:49:55.663Z,27.57
2019-01-31T00:54:44.045Z,29.97
2019-01-31T00:57:25.036Z,38.47
2019-01-31T01:00:06.235Z,31.97
2019-01-31T01:02:50.090Z,30.60
2019-01-31T01:06:41.963Z,30.00
2019-01-31T01:09:17.283Z,27.70
2019-01-31T01:12:04.397Z,28.97
2019-01-31T01:14:57.579Z,36.73
2019-01-31T01:17:46.870Z,27.67
2019-01-31T01:20:30.174Z,31.23
2019-01-31T01:23:09.537Z,28.20
2019-01-31T01:26:01.299Z,27.93
2019-01-31T01:28:55.750Z,24.60
2019-01-31T01:32:03.234Z,27.40
2019-01-31T01:34:43.708Z,24.63
2019-01-31T01:37:36.761Z,31.77
2019-01-31T01:40:28.690Z,26.30
2019-01-31T01:44:09.534Z,30.17
2019-01-31T01:46:46.070Z,22.13
2019-01-31T01:49:23.679Z,34.13
2019-01-31T01:52:07.971Z,29.93
2019-01-31T01:55:01.409Z,27.43
2019-01-31T01:58:43.344Z,26.23
2019-01-31T02:02:21.816Z,25.57
2019-01-31T02:07:10.734Z,28.33
2019-01-31T02:10:51.051Z,28.27
2019-01-31T02:15:37.641Z,33.37
2019-01-31T02:18:15.391Z,31.10
2019-01-31T02:20:59.716Z,39.73
2019-01-31T02:23:41.819Z,26.73
2019-01-31T02:27:21.057Z,35.40
2019-01-31T02:31:03.713Z,32.50
2019-01-31T02:33:45.087Z,45.30
2019-01-31T02:36:35.873Z,36.67
2019-01-31T02:39:49.888Z,35.37
2019-01-31T02:42:31.657Z,31.67
2019-01-31T02:47:15.564Z,42.67
2019-01-31T02:49:56.500Z,34.33
2019-01-31T02:53:07.290Z,37.57
2019-01-31T02:55:49.009Z,30.80
2019-01-31T02:58:27.167Z,39.57
2019-01-31T03:01:09.625Z,29.60
2019-01-31T03:03:54.492Z,38.00
2019-01-31T03:06:35.335Z,42.20
2019-01-31T03:09:17.466Z,43.03
2019-01-31T03:11:58.284Z,34.53
2019-01-31T03:14:40.977Z,38.43
2019-01-31T03:18:22.854Z,54.63
2019-01-31T03:22:02.227Z,42.83
2019-01-31T03:24:51.075Z,39.87
2019-01-31T03:27:35.744Z,49.57
2019-01-31T03:31:22.491Z,56.00
2019-01-31T03:34:01.581Z,43.97
2019-01-31T03:36:47.101Z,49.13
2019-01-31T03:39:30.312Z,44.17
2019-01-31T03:43:37.909Z,49.40
2019-01-31T03:46:19.709Z,45.53
2019-01-31T03:48:59.546Z,43.83
2019-01-31T03:51:44.546Z,43.50
2019-01-31T03:54:31.224Z,48.70
2019-01-31T03:57:13.197Z,38.90
2019-01-31T03:59:51.516Z,38.43
2019-01-31T04:02:31.531Z,43.33
2019-01-31T04:05:11.352Z,48.37
2019-01-31T04:07:40.121Z,54.63
2019-01-31T04:10:18.596Z,50.37
2019-01-31T04:12:37.851Z,66.00
2019-01-31T04:15:07.923Z,49.67
2019-01-31T04:17:36.793Z,54.53
2019-01-31T04:20:06.179Z,46.30
2019-01-31T04:22:35.002Z,58.23
2019-01-31T04:25:04.105Z,45.30
2019-01-31T04:27:32.891Z,45.87
2019-01-31T04:30:01.708Z,47.40
2019-01-31T04:32:30.735Z,46.77
2019-01-31T04:34:59.544Z,49.73
2019-01-31T04:37:28.442Z,49.23
2019-01-31T04:39:57.282Z,44.70
2019-01-31T04:42:26.062Z,48.03
2019-01-31T04:44:54.861Z,79.37
2019-01-31T04:47:23.771Z,46.67
2019-01-31T04:49:52.572Z,61.60
2019-01-31T04:52:21.360Z,57.60
2019-01-31T04:54:50.149Z,60.07
2019-01-31T04:57:19.190Z,54.07
2019-01-31T04:59:47.932Z,38.07
2019-01-31T05:02:16.759Z,59.73
2019-01-31T05:04:45.560Z,49.83
2019-01-31T05:07:14.363Z,44.83
2019-01-31T05:09:43.175Z,53.07
2019-01-31T05:12:11.961Z,43.23
2019-01-31T05:14:40.870Z,50.10
2019-01-31T05:17:09.716Z,46.97
2019-01-31T05:19:38.612Z,53.23
2019-01-31T05:22:07.429Z,55.13
2019-01-31T05:24:36.193Z,59.97
2019-01-31T05:27:05.108Z,67.47
2019-01-31T05:29:33.949Z,61.73
2019-01-31T05:32:02.828Z,61.60
2019-01-31T05:34:31.725Z,68.73
2019-01-31T05:37:00.559Z,58.17
2019-01-31T05:39:29.479Z,68.30
2019-01-31T05:41:58.368Z,68.77
2019-01-31T05:44:27.124Z,61.20
2019-01-31T05:46:56.012Z,67.57
2019-01-31T05:49:24.888Z,72.97
2019-01-31T05:51:53.688Z,67.40
2019-01-31T05:54:22.477Z,71.60
2019-01-31T05:56:51.366Z,80.60
2019-01-31T05:59:20.172Z,84.60
2019-01-31T06:01:50.047Z,77.10
2019-01-31T06:04:23.222Z,70.47
2019-01-31T06:06:52.030Z,68.80
2019-01-31T06:09:20.879Z,77.50
2019-01-31T06:11:49.691Z,76.90
2019-01-31T06:14:18.601Z,78.53
2019-01-31T06:16:47.432Z,74.80
2019-01-31T06:19:16.267Z,70.10
2019-01-31T06:21:45.103Z,78.27
2019-01-31T06:24:13.968Z,73.57
2019-01-31T06:26:43.383Z,69.37
2019-01-31T06:29:12.234Z,79.97
2019-01-31T06:31:41.075Z,70.10
2019-01-31T06:34:10.010Z,81.40
2019-01-31T06:36:38.803Z,78.37
2019-01-31T06:39:08.822Z,96.03
2019-01-31T06:41:38.237Z,77.73
2019-01-31T06:44:07.110Z,69.40
2019-01-31T06:46:35.934Z,81.37
2019-01-31T06:49:04.755Z,90.43
2019-01-31T06:51:33.562Z,81.97
2019-01-31T06:54:02.346Z,82.23
2019-01-31T06:56:31.212Z,97.57
2019-01-31T06:59:00.152Z,88.33
2019-01-31T07:01:28.949Z,91.00
2019-01-31T07:03:57.739Z,100.47
2019-01-31T07:06:26.602Z,105.17
2019-01-31T07:08:55.452Z,107.40
2019-01-31T07:11:30.285Z,106.03
2019-01-31T07:13:53.117Z,107.50
2019-01-31T07:16:22.796Z,118.60
2019-01-31T07:18:51.579Z,153.97
2019-01-31T07:21:20.483Z,123.13
2019-01-31T07:23:49.326Z,109.37
2019-01-31T07:26:18.205Z,111.53
2019-01-31T07:28:47.060Z,102.40
2019-01-31T07:31:15.871Z,104.83
2019-01-31T07:33:44.663Z,114.33
2019-01-31T07:36:13.514Z,106.87
2019-01-31T07:38:42.316Z,105.80
2019-01-31T07:41:11.304Z,109.87
2019-01-31T07:43:39.949Z,85.03
2019-01-31T07:46:08.858Z,90.13
2019-01-31T07:48:37.687Z,89.27
2019-01-31T07:51:06.476Z,97.13
2019-01-31T07:53:35.382Z,106.53
2019-01-31T07:56:04.211Z,98.97
2019-01-31T07:58:33.022Z,101.50
2019-01-31T08:01:01.820Z,97.23
2019-01-31T08:03:30.652Z,94.60
2019-01-31T08:05:59.427Z,95.47
2019-01-31T08:08:28.302Z,81.90
2019-01-31T08:10:57.073Z,92.10
2019-01-31T08:13:25.860Z,77.60
2019-01-31T08:15:54.652Z,93.70
2019-01-31T08:18:23.435Z,86.73
2019-01-31T08:20:52.227Z,91.87
2019-01-31T08:23:21.098Z,92.10
2019-01-31T08:25:49.883Z,84.83
2019-01-31T08:28:18.713Z,94.57
2019-01-31T08:30:47.666Z,98.90
2019-01-31T08:33:16.478Z,88.03
2019-01-31T08:35:45.345Z,103.03
2019-01-31T08:38:14.211Z,95.80
2019-01-31T08:40:43.019Z,94.80
2019-01-31T08:43:11.803Z,82.27
2019-01-31T08:45:40.572Z,75.60
2019-01-31T08:48:09.368Z,90.27
2019-01-31T08:50:38.148Z,90.83
2019-01-31T08:53:07.056Z,78.00
2019-01-31T08:55:35.917Z,87.97
2019-01-31T08:58:04.703Z,85.60
2019-01-31T09:00:33.512Z,94.80
2019-01-31T09:03:02.391Z,92.10
2019-01-31T09:05:31.163Z,80.20
2019-01-31T09:08:00.011Z,96.17
2019-01-31T09:10:32.207Z,80.07
2019-01-31T09:13:03.050Z,78.47
2019-01-31T09:15:31.826Z,86.03
2019-01-31T09:18:00.631Z,89.47
2019-01-31T09:20:36.791Z,93.80
2019-01-31T09:23:13.334Z,74.50
2019-01-31T09:25:55.196Z,77.40
2019-01-31T09:28:36.733Z,77.77
2019-01-31T09:32:21.595Z,83.97
2019-01-31T09:34:58.304Z,89.00
2019-01-31T09:37:45.928Z,79.37
2019-01-31T09:40:22.955Z,97.00
2019-01-31T09:43:27.391Z,77.73
2019-01-31T09:46:06.041Z,99.00
2019-01-31T09:50:48.652Z,77.97
2019-01-31T09:55:32.440Z,77.67
2019-01-31T09:58:12.887Z,66.97
2019-01-31T10:00:51.907Z,64.97
2019-01-31T10:03:35.230Z,96.30
2019-01-31T10:06:27.324Z,80.70
2019-01-31T10:09:06.731Z,86.87
2019-01-31T10:11:47.539Z,75.83
2019-01-31T10:14:39.289Z,87.73
2019-01-31T10:17:52.315Z,74.67
2019-01-31T10:25:22.351Z,69.47
2019-01-31T10:28:02.467Z,66.17
2019-01-31T10:30:41.283Z,73.03
2019-01-31T10:33:27.995Z,71.17
2019-01-31T10:36:10.980Z,76.07
2019-01-31T10:38:57.355Z,72.30
2019-01-31T10:43:43.164Z,63.60
2019-01-31T10:46:25.915Z,82.80
2019-01-31T10:49:04.387Z,70.53
2019-01-31T10:51:49.063Z,94.67
2019-01-31T10:54:36.690Z,86.30
2019-01-31T10:57:26.324Z,96.93
2019-01-31T11:01:07.794Z,81.60
2019-01-31T11:03:49.033Z,89.10
2019-01-31T11:06:33.483Z,65.97
2019-01-31T11:11:21.699Z,71.43
2019-01-31T11:14:03.889Z,70.60
2019-01-31T11:16:49.999Z,82.73
2019-01-31T11:21:36.299Z,81.17
2019-01-31T11:24:16.091Z,78.83
2019-01-31T11:26:57.067Z,108.57
2019-01-31T11:29:36.993Z,76.77
2019-01-31T11:34:32.433Z,75.73
2019-01-31T11:37:00.264Z,77.40
2019-01-31T11:40:50.180Z,76.50
2019-01-31T11:43:39.837Z,83.17
2019-01-31T11:46:20.226Z,89.07
2019-01-31T11:48:59.156Z,76.40
2019-01-31T11:51:48.496Z,68.60
2019-01-31T11:55:13.223Z,85.00
2019-01-31T11:58:14.491Z,83.17
2019-01-31T12:00:43.279Z,84.77
2019-01-31T12:03:12.136Z,91.40
2019-01-31T12:05:40.919Z,99.77
2019-01-31T12:08:09.724Z,82.13
2019-01-31T12:10:38.655Z,96.53
2019-01-31T12:13:07.514Z,93.17
2019-01-31T12:15:36.327Z,78.07
2019-01-31T12:18:05.495Z,90.70
2019-01-31T12:20:34.307Z,88.07
2019-01-31T12:23:03.128Z,76.37
2019-01-31T12:25:31.963Z,80.80
2019-01-31T12:28:00.854Z,90.37
2019-01-31T12:30:29.706Z,79.00
2019-01-31T12:32:58.536Z,86.93
2019-01-31T12:35:27.325Z,88.27
2019-01-31T12:37:56.166Z,92.10
2019-01-31T12:40:25.048Z,79.70
2019-01-31T12:43:00.556Z,79.30
2019-01-31T12:45:29.338Z,79.33
2019-01-31T12:47:58.200Z,81.13
2019-01-31T12:50:28.130Z,84.47
2019-01-31T12:52:57.003Z,84.77
2019-01-31T12:55:25.782Z,89.97
2019-01-31T12:57:54.572Z,79.20
2019-01-31T13:00:25.451Z,80.83
2019-01-31T13:02:54.261Z,84.57
2019-01-31T13:05:23.048Z,97.23
2019-01-31T13:07:51.955Z,89.70
2019-01-31T13:10:20.727Z,93.80
2019-01-31T13:12:49.727Z,85.63
2019-01-31T13:15:18.888Z,87.03
2019-01-31T13:17:47.675Z,91.83
2019-01-31T13:20:19.283Z,66.23
2019-01-31T13:22:49.034Z,69.67
2019-01-31T13:25:17.843Z,68.23
2019-01-31T13:27:46.623Z,63.63
2019-01-31T13:30:17.147Z,59.83
2019-01-31T13:32:45.938Z,53.90
2019-01-31T13:35:14.850Z,53.77
2019-01-31T13:37:43.628Z,46.10
2019-01-31T13:40:16.178Z,65.97
2019-01-31T13:42:45.019Z,60.13
2019-01-31T13:45:15.078Z,56.33
2019-01-31T13:47:43.872Z,54.20
2019-01-31T13:50:13.778Z,50.60
2019-01-31T13:52:42.487Z,47.40
2019-01-31T13:55:18.572Z,55.20
2019-01-31T13:57:44.635Z,51.20
2019-01-31T14:00:14.160Z,50.33
2019-01-31T14:02:42.947Z,51.37
2019-01-31T14:05:12.431Z,53.77
2019-01-31T14:07:41.220Z,49.20
2019-01-31T14:10:11.669Z,43.30
2019-01-31T14:12:41.211Z,38.27
2019-01-31T14:15:10.651Z,38.83
2019-01-31T14:17:39.479Z,39.03
2019-01-31T14:20:10.807Z,40.57
2019-01-31T14:22:42.980Z,47.60
2019-01-31T14:25:08.488Z,42.03
2019-01-31T14:27:37.300Z,39.80
2019-01-31T14:30:10.618Z,45.80
2019-01-31T14:32:39.411Z,37.97
2019-01-31T14:35:09.183Z,36.83
2019-01-31T14:37:38.003Z,63.77
2019-01-31T14:40:10.244Z,55.37
2019-01-31T14:42:36.188Z,51.07
2019-01-31T14:45:05.503Z,43.30
2019-01-31T14:47:34.367Z,39.23
2019-01-31T14:50:03.164Z,38.90
2019-01-31T14:52:32.018Z,43.50
2019-01-31T14:55:01.475Z,45.77
2019-01-31T14:57:30.305Z,45.77
2019-01-31T14:59:59.170Z,41.90
2019-01-31T15:02:27.953Z,38.93
2019-01-31T15:04:56.735Z,52.03
2019-01-31T15:07:25.719Z,44.77
2019-01-31T15:09:54.597Z,38.20
2019-01-31T15:12:23.454Z,38.10
2019-01-31T15:14:52.310Z,45.20
2019-01-31T15:17:21.755Z,42.33
2019-01-31T15:19:50.539Z,45.67
2019-01-31T15:22:19.382Z,41.27
2019-01-31T15:24:48.231Z,48.90
2019-01-31T15:27:17.115Z,42.13
2019-01-31T15:29:45.881Z,41.83
2019-01-31T15:32:14.662Z,45.13
2019-01-31T15:34:43.455Z,49.53
2019-01-31T15:37:12.282Z,43.23
2019-01-31T15:39:41.071Z,40.50
2019-01-31T15:42:09.986Z,48.07
2019-01-31T15:44:43.380Z,45.00
2019-01-31T15:47:07.695Z,88.40
2019-01-31T15:49:36.483Z,56.33
2019-01-31T15:52:05.588Z,49.60
2019-01-31T15:54:34.420Z,40.97
2019-01-31T15:57:03.231Z,48.63
2019-01-31T15:59:32.204Z,47.30
2019-01-31T16:02:03.234Z,58.53
2019-01-31T16:04:32.093Z,46.27
2019-01-31T16:07:01.511Z,60.77
2019-01-31T16:09:30.287Z,47.73
2019-01-31T16:11:59.784Z,51.47
2019-01-31T16:14:27.961Z,48.70
2019-01-31T16:16:56.816Z,49.27
2019-01-31T16:19:25.644Z,49.40
2019-01-31T16:21:54.507Z,53.67
2019-01-31T16:24:23.476Z,61.60
2019-01-31T16:26:52.267Z,54.67
2019-01-31T16:29:21.048Z,61.53
2019-01-31T16:31:49.943Z,59.93
2019-01-31T16:34:18.800Z,56.17
2019-01-31T16:36:47.600Z,57.07
2019-01-31T16:39:16.375Z,54.07
2019-01-31T16:41:45.856Z,53.83
2019-01-31T16:44:14.683Z,59.63
2019-01-31T16:46:43.508Z,57.87
2019-01-31T16:49:13.040Z,53.37
2019-01-31T16:51:41.914Z,51.17
2019-01-31T16:54:10.854Z,56.67
2019-01-31T16:56:39.700Z,70.83
2019-01-31T16:59:09.059Z,61.03
2019-01-31T17:01:37.848Z,59.53
2019-01-31T17:04:06.687Z,57.33
2019-01-31T17:06:41.818Z,67.63
2019-01-31T17:09:10.655Z,56.90
2019-01-31T17:11:39.454Z,58.23
2019-01-31T17:14:08.248Z,62.90
2019-01-31T17:16:37.081Z,56.57
2019-01-31T17:19:06.400Z,58.83
2019-01-31T17:21:35.239Z,60.93
2019-01-31T17:24:04.124Z,45.93
2019-01-31T17:26:32.894Z,51.43
2019-01-31T17:29:01.679Z,57.30
2019-01-31T17:31:30.555Z,48.33
2019-01-31T17:33:59.343Z,48.53
2019-01-31T17:36:28.135Z,46.83
2019-01-31T17:38:56.915Z,53.87
2019-01-31T17:41:25.700Z,48.10
2019-01-31T17:43:54.492Z,46.33
2019-01-31T17:46:23.290Z,46.60
2019-01-31T17:48:52.214Z,52.53
2019-01-31T17:51:20.979Z,48.97
2019-01-31T17:53:49.779Z,51.93
2019-01-31T17:56:18.607Z,68.50
2019-01-31T17:58:47.411Z,47.13
2019-01-31T18:01:16.216Z,51.07
2019-01-31T18:03:45.033Z,53.37
2019-01-31T18:06:13.828Z,46.17
2019-01-31T18:08:42.644Z,46.10
2019-01-31T18:11:11.607Z,46.13
2019-01-31T18:13:40.418Z,50.93
2019-01-31T18:16:09.243Z,50.70
2019-01-31T18:18:38.108Z,50.47
2019-01-31T18:21:06.950Z,50.50
2019-01-31T18:23:35.755Z,47.40
2019-01-31T18:26:04.597Z,50.43
2019-01-31T18:28:33.843Z,47.90
2019-01-31T18:31:02.675Z,53.47
2019-01-31T18:33:31.479Z,51.03
2019-01-31T18:36:00.280Z,54.17
2019-01-31T18:38:29.071Z,52.33
2019-01-31T18:40:58.002Z,49.73
2019-01-31T18:43:27.556Z,55.73
2019-01-31T18:45:56.468Z,56.83
2019-01-31T18:48:25.333Z,55.10
2019-01-31T18:50:54.115Z,57.87
2019-01-31T18:53:22.988Z,58.97
2019-01-31T18:55:51.860Z,54.43
2019-01-31T18:58:20.639Z,54.50
2019-01-31T19:00:50.350Z,60.77
2019-01-31T19:03:19.135Z,60.17
2019-01-31T19:05:47.910Z,56.77
2019-01-31T19:08:16.757Z,74.57
2019-01-31T19:10:45.541Z,68.43
2019-01-31T19:13:14.326Z,61.73
2019-01-31T19:15:43.116Z,58.80
2019-01-31T19:18:11.937Z,64.77
2019-01-31T19:20:40.754Z,62.37
2019-01-31T19:23:09.575Z,61.90
2019-01-31T19:25:38.371Z,58.97
2019-01-31T19:28:07.655Z,57.27
2019-01-31T19:30:38.196Z,61.17
2019-01-31T19:33:07.804Z,66.07
2019-01-31T19:35:36.780Z,64.00
2019-01-31T19:38:06.566Z,56.90
2019-01-31T19:40:36.382Z,60.37
2019-01-31T19:43:05.663Z,65.13
2019-01-31T19:45:37.448Z,64.00
2019-01-31T19:48:07.058Z,61.87
2019-01-31T19:50:35.861Z,69.87
2019-01-31T19:53:04.986Z,80.93
2019-01-31T19:55:33.856Z,74.23
2019-01-31T19:58:02.657Z,65.90
2019-01-31T20:00:31.496Z,74.27
2019-01-31T20:03:00.428Z,70.80
2019-01-31T20:05:29.183Z,74.60
2019-01-31T20:07:57.973Z,82.57
2019-01-31T20:10:27.570Z,75.57
2019-01-31T20:12:56.630Z,73.20
2019-01-31T20:15:25.448Z,85.60
2019-01-31T20:17:54.235Z,76.20
2019-01-31T20:20:24.367Z,74.60
2019-01-31T20:22:54.002Z,81.63
2019-01-31T20:25:22.770Z,79.90
2019-01-31T20:27:51.560Z,81.33
2019-01-31T20:30:26.162Z,86.07
2019-01-31T20:32:55.019Z,84.70
2019-01-31T20:35:23.816Z,85.40
2019-01-31T20:37:52.643Z,82.33
2019-01-31T20:40:24.712Z,80.17
2019-01-31T20:42:53.481Z,76.30
2019-01-31T20:45:22.260Z,83.10
2019-01-31T20:47:51.046Z,80.63
2019-01-31T20:50:22.951Z,69.17
2019-01-31T20:52:51.738Z,66.03
2019-01-31T20:55:20.703Z,73.33
2019-01-31T20:57:49.476Z,68.97
2019-01-31T21:00:22.804Z,65.93
2019-01-31T21:02:51.665Z,69.87
2019-01-31T21:05:20.535Z,67.97
2019-01-31T21:07:49.438Z,68.83
2019-01-31T21:10:18.346Z,67.97
2019-01-31T21:12:47.122Z,67.97
2019-01-31T21:15:18.090Z,73.20
2019-01-31T21:17:46.863Z,71.87
2019-01-31T21:20:16.690Z,70.47
2019-01-31T21:22:45.465Z,64.87
2019-01-31T21:25:14.462Z,64.43
2019-01-31T21:27:43.248Z,70.70
2019-01-31T21:30:15.623Z,56.03
2019-01-31T21:32:44.470Z,62.97
2019-01-31T21:35:13.278Z,67.57
2019-01-31T21:37:42.087Z,65.97
2019-01-31T21:40:11.135Z,60.37
2019-01-31T21:42:39.975Z,67.67
2019-01-31T21:45:10.407Z,68.90
2019-01-31T21:47:39.235Z,71.50
2019-01-31T21:50:10.334Z,73.63
2019-01-31T21:52:39.129Z,102.83
2019-01-31T21:55:08.375Z,73.87
2019-01-31T21:57:37.180Z,75.53
2019-01-31T22:00:08.722Z,74.83
2019-01-31T22:02:37.492Z,81.53
2019-01-31T22:05:07.656Z,94.13
2019-01-31T22:07:36.438Z,82.77
2019-01-31T22:10:06.422Z,81.03
2019-01-31T22:12:35.245Z,73.53
2019-01-31T22:15:04.176Z,59.90
2019-01-31T22:17:32.940Z,72.40
2019-01-31T22:20:01.811Z,72.17
2019-01-31T22:22:30.663Z,71.57
2019-01-31T22:24:59.491Z,68.93
2019-01-31T22:27:28.286Z,77.07
2019-01-31T22:29:57.060Z,62.97
2019-01-31T22:32:25.925Z,69.20
2019-01-31T22:34:54.783Z,64.53
2019-01-31T22:37:23.605Z,65.87
2019-01-31T22:39:52.374Z,64.93
2019-01-31T22:42:21.164Z,69.70
2019-01-31T22:44:50.012Z,68.47
2019-01-31T22:47:25.763Z,64.47
2019-01-31T22:49:47.734Z,55.47
2019-01-31T22:52:16.520Z,50.23
2019-01-31T22:54:45.320Z,58.30
2019-01-31T22:57:14.114Z,53.60
2019-01-31T22:59:42.959Z,54.97
2019-01-31T23:02:13.970Z,58.23
2019-01-31T23:04:42.934Z,51.63
2019-01-31T23:07:11.718Z,58.33
2019-01-31T23:09:40.511Z,51.53
2019-01-31T23:12:09.336Z,50.93
2019-01-31T23:14:38.165Z,55.97
2019-01-31T23:17:07.136Z,51.43
2019-01-31T23:19:35.941Z,48.87
2019-01-31T23:22:04.735Z,45.03
2019-01-31T23:24:33.603Z,49.37
2019-01-31T23:27:02.467Z,47.10
2019-01-31T23:29:31.216Z,46.17
2019-01-31T23:32:00.082Z,47.37
2019-01-31T23:34:28.992Z,47.47
2019-01-31T23:36:57.759Z,48.27
2019-01-31T23:39:26.554Z,46.93
2019-01-31T23:41:55.350Z,47.83
2019-01-31T23:44:24.206Z,43.17
2019-01-31T23:46:53.087Z,41.20
2019-01-31T23:49:21.873Z,40.67
2019-01-31T23:51:50.747Z,40.63
2019-01-31T23:54:19.558Z,39.83
2019-01-31T23:56:48.404Z,40.03
2019-01-31T23:59:17.177Z,40.23
